Time;durP1;ratioP1;P1;durP2;ratioP2;P2;SDS_P1;SDS_P2;PMS_P1;PMS_P2;Temp;Humidity;BMP_temperature;BMP_pressure;BME280_temperature;BME280_humidity;BME280_pressure;Samples;Min_cycle;Max_cycle;Signal;HPM_P1;HPM_P2
2022/11/02 00:00:42;;;;;;;1.45;1.23;;;11.00;99.90;;;;;;5035014;28;20201;-75
2022/11/02 00:03:08;;;;;;;1.25;1.15;;;11.10;99.90;;;;;;5035016;28;20642;-75
2022/11/02 00:05:34;;;;;;;0.60;0.60;;;11.00;99.90;;;;;;5034421;28;20274;-75
2022/11/02 00:08:00;;;;;;;3.50;2.15;;;11.10;99.90;;;;;;5052847;28;20197;-75
2022/11/02 00:10:25;;;;;;;0.68;0.68;;;11.10;99.90;;;;;;5052860;28;20221;-76
2022/11/02 00:12:52;;;;;;;0.60;0.60;;;11.10;99.90;;;;;;5053108;28;20190;-76
2022/11/02 00:15:18;;;;;;;1.30;0.63;;;11.10;99.90;;;;;;5034856;28;20281;-76
2022/11/02 00:17:49;;;;;;;0.50;0.50;;;11.10;99.90;;;;;;5034504;28;20197;-76
2022/11/02 00:20:18;;;;;;;2.17;1.98;;;11.10;99.90;;;;;;5052901;28;20197;-76
2022/11/02 00:22:46;;;;;;;1.13;1.08;;;11.10;99.90;;;;;;5017396;28;20673;-76
2022/11/02 00:25:14;;;;;;;0.60;0.60;;;11.10;99.90;;;;;;5032680;28;20645;-76
2022/11/02 00:27:41;;;;;;;0.60;0.60;;;11.10;99.90;;;;;;5032235;28;20198;-76
2022/11/02 00:30:07;;;;;;;0.95;0.95;;;11.10;99.90;;;;;;5031315;28;20669;-75
2022/11/02 00:32:33;;;;;;;0.60;0.60;;;11.10;99.90;;;;;;5031985;28;20252;-75
2022/11/02 00:34:58;;;;;;;2.05;1.90;;;11.10;99.90;;;;;;5032459;28;20202;-76
2022/11/02 00:37:24;;;;;;;1.02;1.02;;;11.00;99.90;;;;;;5031404;28;20601;-77
2022/11/02 00:39:50;;;;;;;0.60;0.60;;;11.00;99.90;;;;;;5039766;28;20204;-76
2022/11/02 00:42:15;;;;;;;0.80;0.80;;;11.00;99.90;;;;;;5052663;28;20194;-77
2022/11/02 00:44:41;;;;;;;1.58;1.05;;;11.00;99.90;;;;;;5055600;28;20205;-76
2022/11/02 00:47:07;;;;;;;0.73;0.70;;;11.00;99.90;;;;;;5055834;28;20276;-76
2022/11/02 00:49:34;;;;;;;1.23;0.95;;;10.90;99.90;;;;;;5055873;28;20242;-76
2022/11/02 00:51:59;;;;;;;0.60;0.60;;;11.00;99.90;;;;;;5056503;28;20205;-75
2022/11/02 00:54:25;;;;;;;0.50;0.50;;;10.90;99.90;;;;;;5056394;28;20233;-77
2022/11/02 00:56:51;;;;;;;0.55;0.55;;;10.90;99.90;;;;;;5056436;28;20209;-76
2022/11/02 00:59:16;;;;;;;1.10;1.05;;;10.90;99.90;;;;;;5056003;28;20208;-75
2022/11/02 01:01:46;;;;;;;1.95;1.05;;;11.00;99.90;;;;;;5037871;28;20220;-76
2022/11/02 01:04:13;;;;;;;0.50;0.50;;;10.90;99.90;;;;;;5037977;28;20218;-75
2022/11/02 01:06:39;;;;;;;0.52;0.52;;;10.90;99.90;;;;;;5055794;28;20611;-75
2022/11/02 01:09:05;;;;;;;0.80;0.80;;;10.90;99.90;;;;;;5055761;28;20648;-75
2022/11/02 01:11:30;;;;;;;0.70;0.70;;;10.90;99.90;;;;;;5055662;28;20201;-75
2022/11/02 01:13:56;;;;;;;1.65;1.55;;;10.90;99.90;;;;;;5037792;28;20193;-76
2022/11/02 01:16:22;;;;;;;0.50;0.50;;;10.90;99.90;;;;;;5055470;28;20272;-76
2022/11/02 01:18:55;;;;;;;1.08;1.08;;;10.90;99.90;;;;;;5055821;28;20535;-75
2022/11/02 01:21:22;;;;;;;2.67;1.40;;;10.90;99.90;;;;;;5055242;28;20193;-75
2022/11/02 01:23:47;;;;;;;2.65;1.85;;;10.90;99.90;;;;;;5055333;28;20296;-76
2022/11/02 01:26:13;;;;;;;0.95;0.90;;;10.90;99.90;;;;;;5035707;28;20692;-75
2022/11/02 01:28:39;;;;;;;0.60;0.60;;;10.90;99.90;;;;;;5034826;28;20202;-76
2022/11/02 01:31:06;;;;;;;0.70;0.70;;;10.90;99.90;;;;;;5035532;28;20201;-76
2022/11/02 01:33:32;;;;;;;0.60;0.60;;;10.80;99.90;;;;;;5017628;28;20198;-75
2022/11/02 01:36:02;;;;;;;0.57;0.57;;;10.80;99.90;;;;;;5029158;28;20197;-77
2022/11/02 01:38:28;;;;;;;0.75;0.75;;;10.80;99.90;;;;;;5055225;28;20284;-76
2022/11/02 01:40:53;;;;;;;0.80;0.75;;;10.80;99.90;;;;;;5056138;28;20277;-76
2022/11/02 01:43:24;;;;;;;0.63;0.63;;;10.80;99.90;;;;;;5054953;28;20202;-75
2022/11/02 01:45:54;;;;;;;0.98;0.93;;;10.80;99.90;;;;;;5055184;28;20190;-76
2022/11/02 01:48:35;;;;;;;0.65;0.65;;;10.80;99.90;;;;;;5036960;28;20229;-76
2022/11/02 01:51:05;;;;;;;0.88;0.88;;;10.80;99.90;;;;;;5037017;28;20284;-76
2022/11/02 01:53:33;;;;;;;0.63;0.63;;;10.70;99.90;;;;;;5054819;28;20675;-75
2022/11/02 01:56:00;;;;;;;2.38;1.55;;;10.70;99.90;;;;;;5054844;28;20566;-76
2022/11/02 01:58:26;;;;;;;0.70;0.70;;;10.80;99.90;;;;;;5054760;28;20649;-76
2022/11/02 02:00:53;;;;;;;6.90;2.13;;;10.70;99.90;;;;;;5055128;28;20242;-75
2022/11/02 02:03:20;;;;;;;1.50;1.40;;;10.80;99.90;;;;;;5054607;28;20212;-75
2022/11/02 02:05:50;;;;;;;0.77;0.77;;;10.80;99.90;;;;;;5054616;28;20555;-74
2022/11/02 02:08:20;;;;;;;0.65;0.65;;;10.80;99.90;;;;;;5054735;28;20190;-75
2022/11/02 02:10:46;;;;;;;0.75;0.75;;;10.80;99.90;;;;;;5036873;28;20194;-74
2022/11/02 02:13:12;;;;;;;1.15;1.08;;;10.90;99.90;;;;;;5053858;28;20205;-75
2022/11/02 02:16:04;;;;;;;1.90;0.95;;;10.90;99.90;;;;;;5036486;28;20231;-75
2022/11/02 02:18:43;;;;;;;0.52;0.52;;;10.90;99.90;;;;;;5054404;28;20193;-75
2022/11/02 02:21:40;;;;;;;0.50;0.50;;;10.90;99.90;;;;;;5054415;28;20258;-74
2022/11/02 02:24:34;;;;;;;0.60;0.60;;;10.90;99.90;;;;;;5033740;28;20721;-75
2022/11/02 02:27:13;;;;;;;0.68;0.68;;;10.90;99.90;;;;;;5034458;28;20281;-75
2022/11/02 02:29:57;;;;;;;0.65;0.65;;;10.90;99.90;;;;;;5034117;28;20194;-74
2022/11/02 02:32:29;;;;;;;0.50;0.50;;;11.00;99.90;;;;;;5030554;28;20252;-75
2022/11/02 02:35:13;;;;;;;0.90;0.77;;;11.00;99.90;;;;;;5054099;28;20618;-75
2022/11/02 02:37:58;;;;;;;0.68;0.68;;;11.00;99.90;;;;;;5016425;28;20673;-75
2022/11/02 02:40:44;;;;;;;0.70;0.70;;;11.00;99.90;;;;;;5033866;28;20604;-75
2022/11/02 02:43:37;;;;;;;0.60;0.60;;;11.10;99.90;;;;;;5033971;28;20202;-76
2022/11/02 02:46:17;;;;;;;0.95;0.82;;;11.10;99.90;;;;;;5033916;28;20194;-76
2022/11/02 02:48:46;;;;;;;1.10;1.10;;;11.10;99.90;;;;;;5033678;28;20221;-76
2022/11/02 02:51:21;;;;;;;1.85;0.98;;;11.10;99.90;;;;;;5033932;28;20252;-75
2022/11/02 02:53:52;;;;;;;0.70;0.70;;;11.10;99.90;;;;;;5016264;28;20255;-76
2022/11/02 02:56:22;;;;;;;29.77;1.00;;;11.10;99.90;;;;;;5033997;28;20661;-76
2022/11/02 02:59:05;;;;;;;0.57;0.57;;;11.10;99.90;;;;;;5016107;28;20208;-75
2022/11/02 03:01:31;;;;;;;1.25;1.15;;;11.10;99.90;;;;;;5045166;28;20212;-76
2022/11/02 03:03:57;;;;;;;2.00;1.00;;;11.10;99.90;;;;;;5053612;28;20206;-76
2022/11/02 03:06:32;;;;;;;4.07;1.70;;;11.10;99.90;;;;;;5053091;28;20217;-76
2022/11/02 03:09:12;;;;;;;1.08;0.98;;;11.10;99.90;;;;;;5053786;28;20239;-75
2022/11/02 03:12:22;;;;;;;1.35;1.25;;;11.20;99.90;;;;;;5035361;28;20668;-76
2022/11/02 03:14:59;;;;;;;3.65;1.77;;;11.20;99.90;;;;;;4937504;29;20193;-76
2022/11/02 03:17:33;;;;;;;0.80;0.80;;;11.20;99.90;;;;;;4953194;29;20204;-74
2022/11/02 03:20:22;;;;;;;1.85;0.93;;;11.20;99.90;;;;;;4937205;29;20317;-75
2022/11/02 03:22:57;;;;;;;0.50;0.50;;;11.20;99.90;;;;;;4953332;29;20244;-75
2022/11/02 03:25:29;;;;;;;0.60;0.60;;;11.20;99.90;;;;;;4953177;29;20223;-76
2022/11/02 03:28:16;;;;;;;0.63;0.63;;;11.20;99.90;;;;;;4939959;28;20204;-76
2022/11/02 03:30:48;;;;;;;0.82;0.82;;;11.20;99.90;;;;;;4972422;28;20196;-75
2022/11/02 03:33:45;;;;;;;3.83;1.95;;;11.30;99.90;;;;;;4957606;28;20253;-75
2022/11/02 03:36:21;;;;;;;0.68;0.68;;;11.30;99.90;;;;;;4952705;28;20201;-75
2022/11/02 03:39:01;;;;;;;0.77;0.77;;;11.30;99.90;;;;;;4952638;29;20243;-75
2022/11/02 03:41:28;;;;;;;1.60;1.50;;;11.30;99.90;;;;;;4952412;29;20208;-75
2022/11/02 03:44:01;;;;;;;1.23;1.15;;;11.30;99.90;;;;;;4952496;29;20215;-75
2022/11/02 03:46:28;;;;;;;4.22;1.67;;;11.30;99.90;;;;;;4952378;29;20207;-75
2022/11/02 03:48:55;;;;;;;0.90;0.90;;;11.30;99.90;;;;;;4996916;28;20292;-75
2022/11/02 03:51:24;;;;;;;1.85;1.15;;;11.30;99.90;;;;;;5042447;28;20193;-75
2022/11/02 03:54:00;;;;;;;2.15;1.45;;;11.40;99.90;;;;;;5034896;28;20197;-75
2022/11/02 03:56:34;;;;;;;0.60;0.60;;;11.40;99.90;;;;;;5034518;28;20292;-75
2022/11/02 03:59:00;;;;;;;0.60;0.60;;;11.30;99.90;;;;;;5034628;28;20224;-75
2022/11/02 04:01:28;;;;;;;0.75;0.75;;;11.40;99.90;;;;;;5043489;28;20200;-75
2022/11/02 04:03:53;;;;;;;1.00;0.90;;;11.40;99.90;;;;;;5052143;28;20258;-75
2022/11/02 04:06:19;;;;;;;0.60;0.60;;;11.40;99.90;;;;;;5052006;28;20193;-75
2022/11/02 04:08:47;;;;;;;2.63;1.73;;;11.40;99.90;;;;;;5034589;28;20194;-74
2022/11/02 04:16:49;;;;;;;0.80;0.77;;;11.40;99.90;;;;;;5021488;28;20210;-75
2022/11/02 04:19:26;;;;;;;0.50;0.50;;;11.40;99.90;;;;;;5054779;28;20220;-76
2022/11/02 04:27:22;;;;;;;4.30;1.45;;;11.40;99.90;;;;;;5056148;28;20200;-75
2022/11/02 04:29:48;;;;;;;0.60;0.60;;;11.40;99.90;;;;;;5040544;28;20201;-76
2022/11/02 04:32:14;;;;;;;1.25;1.15;;;11.40;99.90;;;;;;5038241;28;20284;-75
2022/11/02 04:34:39;;;;;;;1.45;1.35;;;11.30;99.90;;;;;;5037751;28;20201;-76
2022/11/02 04:38:39;;;;;;;0.50;0.50;;;11.30;99.90;;;;;;5055874;28;20201;-75
2022/11/02 04:39:50;;;;;;;0.55;0.55;;;11.30;99.90;;;;;;5055541;28;20193;-76
2022/11/02 04:42:16;;;;;;;0.60;0.60;;;11.30;99.90;;;;;;5055773;28;20775;-75
2022/11/02 04:44:42;;;;;;;0.75;0.75;;;11.30;99.90;;;;;;5055476;28;20244;-75
2022/11/02 04:47:08;;;;;;;0.60;0.60;;;11.30;99.90;;;;;;5055701;28;20552;-75
2022/11/02 04:49:34;;;;;;;0.60;0.60;;;11.30;99.90;;;;;;5037352;28;20229;-76
2022/11/02 04:51:59;;;;;;;0.70;0.70;;;11.30;99.90;;;;;;5055472;28;20189;-75
2022/11/02 04:54:25;;;;;;;1.23;1.13;;;11.30;99.90;;;;;;5055402;28;20225;-76
2022/11/02 04:56:50;;;;;;;1.85;1.27;;;11.30;99.90;;;;;;5055540;28;20284;-75
2022/11/02 04:59:16;;;;;;;0.60;0.60;;;11.30;99.90;;;;;;5055426;28;20272;-75
2022/11/02 05:01:42;;;;;;;0.70;0.70;;;11.20;99.90;;;;;;5037232;28;20204;-76
2022/11/02 05:04:09;;;;;;;1.90;0.88;;;11.20;99.90;;;;;;5036451;28;20616;-76
2022/11/02 05:06:35;;;;;;;1.15;1.05;;;11.20;99.90;;;;;;5035044;28;20248;-76
2022/11/02 05:09:01;;;;;;;0.75;0.75;;;11.20;99.90;;;;;;5017551;28;20564;-75
2022/11/02 05:11:26;;;;;;;0.98;0.98;;;11.20;99.90;;;;;;5035154;28;20194;-75
2022/11/02 05:13:52;;;;;;;0.60;0.60;;;11.20;99.90;;;;;;5033954;28;20229;-77
2022/11/02 05:16:18;;;;;;;1.08;0.98;;;11.20;99.90;;;;;;5017319;28;20574;-81
2022/11/02 05:18:43;;;;;;;0.60;0.60;;;11.20;99.90;;;;;;5035331;28;20194;-75
2022/11/02 05:21:10;;;;;;;3.20;1.60;;;11.20;99.90;;;;;;5030908;28;20292;-76
2022/11/02 05:23:37;;;;;;;0.60;0.60;;;11.20;99.90;;;;;;5054679;28;20213;-77
2022/11/02 05:26:05;;;;;;;0.40;0.40;;;11.20;99.90;;;;;;5055970;28;20224;-75
2022/11/02 05:28:31;;;;;;;0.57;0.57;;;11.20;99.90;;;;;;5054445;28;20190;-75
2022/11/02 05:30:59;;;;;;;0.90;0.80;;;11.20;99.90;;;;;;5054647;28;20246;-76
2022/11/02 05:33:27;;;;;;;0.68;0.68;;;11.20;99.90;;;;;;5054579;28;20189;-76
2022/11/02 05:35:55;;;;;;;0.70;0.70;;;11.20;99.90;;;;;;5036974;28;20202;-76
2022/11/02 05:38:22;;;;;;;0.90;0.90;;;11.20;99.90;;;;;;5054471;28;20194;-76
2022/11/02 05:40:55;;;;;;;0.60;0.60;;;11.20;99.90;;;;;;5054626;28;20194;-76
2022/11/02 05:43:21;;;;;;;2.60;1.73;;;11.20;99.90;;;;;;5036688;28;20300;-76
2022/11/02 05:45:55;;;;;;;8.27;2.25;;;11.20;99.90;;;;;;5036625;28;20193;-76
2022/11/02 05:48:22;;;;;;;0.85;0.75;;;11.20;99.90;;;;;;5054118;28;20221;-76
2022/11/02 05:50:48;;;;;;;2.70;1.20;;;11.20;99.90;;;;;;5036489;28;20190;-76
2022/11/02 05:53:14;;;;;;;0.57;0.57;;;11.20;99.90;;;;;;5036341;28;20198;-75
2022/11/02 05:55:40;;;;;;;1.35;1.25;;;11.20;99.90;;;;;;5036235;28;20197;-76
2022/11/02 05:58:05;;;;;;;0.70;0.70;;;11.10;99.90;;;;;;5036391;28;20198;-75
2022/11/02 06:00:31;;;;;;;2.85;1.33;;;11.10;99.90;;;;;;5033956;28;20289;-76
2022/11/02 06:02:57;;;;;;;1.42;1.35;;;11.10;99.90;;;;;;5033909;28;20194;-76
2022/11/02 06:05:24;;;;;;;0.60;0.60;;;11.10;99.90;;;;;;5016189;28;20204;-76
2022/11/02 06:07:50;;;;;;;0.50;0.50;;;11.00;99.90;;;;;;5034077;28;20202;-76
2022/11/02 06:10:17;;;;;;;0.90;0.90;;;11.00;99.90;;;;;;5034133;28;20614;-76
2022/11/02 06:12:43;;;;;;;0.80;0.80;;;11.00;99.90;;;;;;5016253;28;20202;-76
2022/11/02 06:15:10;;;;;;;0.85;0.85;;;11.00;99.90;;;;;;5033952;28;20190;-77
2022/11/02 06:17:39;;;;;;;0.80;0.80;;;11.00;99.90;;;;;;5036788;28;20216;-76
2022/11/02 06:20:06;;;;;;;0.45;0.45;;;11.00;99.90;;;;;;5073491;28;20211;-77
2022/11/02 06:22:41;;;;;;;1.95;1.50;;;11.00;99.90;;;;;;5054244;28;20201;-76
2022/11/02 06:25:08;;;;;;;3.60;0.98;;;11.00;99.90;;;;;;5042350;28;20213;-76
2022/11/02 06:27:34;;;;;;;0.50;0.50;;;11.00;99.90;;;;;;5033712;28;20561;-76
2022/11/02 06:30:00;;;;;;;0.70;0.70;;;11.00;99.90;;;;;;5015888;28;20205;-76
2022/11/02 06:32:26;;;;;;;0.55;0.55;;;11.00;99.90;;;;;;5033477;28;20201;-76
2022/11/02 06:34:52;;;;;;;0.80;0.80;;;10.90;99.90;;;;;;5015943;28;20197;-76
2022/11/02 06:37:17;;;;;;;0.80;0.77;;;10.90;99.90;;;;;;5016015;28;20202;-77
2022/11/02 06:39:43;;;;;;;0.70;0.70;;;10.90;99.90;;;;;;5033369;28;20677;-76
2022/11/02 06:42:09;;;;;;;4.28;1.35;;;10.90;99.90;;;;;;5014957;28;20229;-75
2022/11/02 06:44:34;;;;;;;0.60;0.60;;;10.90;99.90;;;;;;5033301;28;20252;-76
2022/11/02 06:47:00;;;;;;;0.60;0.60;;;10.90;99.90;;;;;;5033430;28;20671;-75
2022/11/02 06:49:25;;;;;;;6.53;1.88;;;10.90;99.90;;;;;;5015272;28;20234;-76
2022/11/02 06:51:52;;;;;;;0.60;0.60;;;10.90;99.90;;;;;;5031996;28;20194;-76
2022/11/02 06:54:17;;;;;;;1.05;1.05;;;10.90;99.90;;;;;;5033387;28;20194;-76
2022/11/02 06:56:43;;;;;;;1.02;0.90;;;10.90;99.90;;;;;;5034460;28;20208;-76
2022/11/02 06:59:09;;;;;;;16.95;1.23;;;10.90;99.90;;;;;;5035283;28;20283;-75
2022/11/02 07:01:35;;;;;;;1.33;1.25;;;10.90;99.90;;;;;;5052898;28;20193;-76
2022/11/02 07:04:01;;;;;;;0.70;0.70;;;10.90;99.90;;;;;;5035020;28;20244;-75
2022/11/02 07:06:27;;;;;;;0.47;0.47;;;11.00;99.90;;;;;;5052881;28;20667;-75
2022/11/02 07:08:54;;;;;;;0.85;0.85;;;11.00;99.90;;;;;;5034939;28;20232;-75
2022/11/02 07:11:20;;;;;;;0.80;0.80;;;10.90;99.90;;;;;;5052603;28;20197;-76
2022/11/02 07:13:45;;;;;;;0.50;0.50;;;10.90;99.90;;;;;;5062558;28;20208;-76
2022/11/02 07:16:11;;;;;;;1.85;1.42;;;10.90;99.90;;;;;;5072750;28;20197;-75
2022/11/02 07:18:37;;;;;;;0.55;0.55;;;10.90;99.90;;;;;;5054602;28;20250;-75
2022/11/02 07:21:03;;;;;;;0.50;0.50;;;10.90;99.90;;;;;;5052760;28;20251;-75
2022/11/02 07:23:29;;;;;;;0.60;0.60;;;11.00;99.90;;;;;;5052522;28;20225;-76
2022/11/02 07:25:54;;;;;;;19.80;1.50;;;10.90;99.90;;;;;;5035610;28;20214;-75
2022/11/02 07:28:20;;;;;;;0.90;0.90;;;10.90;99.90;;;;;;5032628;28;20198;-76
2022/11/02 07:30:46;;;;;;;0.50;0.50;;;11.00;99.90;;;;;;5015053;28;20563;-76
2022/11/02 07:33:12;;;;;;;0.60;0.60;;;11.00;99.90;;;;;;5032621;28;20194;-76
2022/11/02 07:35:37;;;;;;;0.80;0.80;;;11.00;99.90;;;;;;5032597;28;20557;-76
2022/11/02 07:38:05;;;;;;;3.60;1.90;;;11.00;99.90;;;;;;5032738;28;20193;-76
2022/11/02 07:40:33;;;;;;;0.60;0.60;;;10.90;99.90;;;;;;5031220;28;20734;-75
2022/11/02 07:42:59;;;;;;;0.50;0.50;;;10.90;99.90;;;;;;5014830;28;20197;-76
2022/11/02 07:45:24;;;;;;;0.60;0.60;;;11.00;99.90;;;;;;5032449;28;20236;-75
2022/11/02 07:47:50;;;;;;;0.50;0.50;;;11.00;99.90;;;;;;5014653;28;20220;-75
2022/11/02 07:50:19;;;;;;;0.50;0.50;;;11.00;99.90;;;;;;5032442;28;20186;-75
2022/11/02 07:52:52;;;;;;;0.60;0.60;;;11.10;99.90;;;;;;5051687;28;20611;-76
2022/11/02 07:55:23;;;;;;;2.08;1.40;;;11.10;99.90;;;;;;5038694;28;20198;-75
2022/11/02 07:57:56;;;;;;;0.50;0.50;;;11.10;99.90;;;;;;5038522;28;20656;-75
2022/11/02 08:00:22;;;;;;;0.50;0.50;;;11.10;99.90;;;;;;5056335;28;20277;-76
2022/11/02 08:02:52;;;;;;;0.70;0.70;;;11.10;99.90;;;;;;5038526;28;20224;-75
2022/11/02 08:05:18;;;;;;;11.05;2.33;;;11.10;99.90;;;;;;5038209;28;20209;-77
2022/11/02 08:07:43;;;;;;;0.50;0.50;;;11.10;99.90;;;;;;5056259;28;20198;-77
2022/11/02 08:10:09;;;;;;;1.60;1.30;;;11.10;99.90;;;;;;5043767;28;20231;-79
2022/11/02 08:12:35;;;;;;;0.50;0.50;;;11.10;99.90;;;;;;5038128;28;20657;-77
2022/11/02 08:15:00;;;;;;;7.72;1.35;;;11.20;99.90;;;;;;5057186;28;20251;-77
2022/11/02 08:17:26;;;;;;;0.80;0.80;;;11.20;99.90;;;;;;5056108;28;20193;-76
2022/11/02 08:19:51;;;;;;;0.90;0.90;;;11.20;99.90;;;;;;5056036;28;20225;-76
2022/11/02 08:22:17;;;;;;;0.60;0.60;;;11.20;99.90;;;;;;5056383;28;20217;-76
2022/11/02 08:24:43;;;;;;;0.52;0.52;;;11.20;99.90;;;;;;5048290;28;20637;-76
2022/11/02 08:27:08;;;;;;;0.68;0.68;;;11.20;99.90;;;;;;5018302;28;20209;-76
2022/11/02 08:29:35;;;;;;;23.75;1.05;;;11.30;99.90;;;;;;5035799;28;20278;-76
2022/11/02 08:32:01;;;;;;;0.52;0.52;;;11.30;99.90;;;;;;5018175;28;20209;-76
2022/11/02 08:34:27;;;;;;;0.70;0.70;;;11.30;99.90;;;;;;5018013;28;20198;-76
2022/11/02 08:36:53;;;;;;;0.60;0.60;;;11.30;99.90;;;;;;5035836;28;20686;-76
2022/11/02 08:39:18;;;;;;;1.02;1.02;;;11.30;99.90;;;;;;5018052;28;20679;-76
2022/11/02 08:41:44;;;;;;;0.50;0.50;;;11.30;99.90;;;;;;5017899;28;20202;-76
2022/11/02 08:44:10;;;;;;;0.52;0.52;;;11.30;99.90;;;;;;5017969;28;20214;-76
2022/11/02 08:46:35;;;;;;;0.98;0.95;;;11.30;99.90;;;;;;5017849;28;20197;-76
2022/11/02 08:49:01;;;;;;;0.65;0.65;;;11.30;99.90;;;;;;5053102;28;20290;-76
2022/11/02 08:51:27;;;;;;;0.70;0.70;;;11.30;99.90;;;;;;5055332;28;20217;-75
2022/11/02 08:53:52;;;;;;;1.13;1.02;;;11.30;99.90;;;;;;5037633;28;20719;-76
2022/11/02 08:56:19;;;;;;;0.60;0.60;;;11.20;99.90;;;;;;5037414;28;20280;-76
2022/11/02 08:58:44;;;;;;;0.60;0.60;;;11.20;99.90;;;;;;5055343;28;20197;-76
2022/11/02 09:01:10;;;;;;;0.50;0.50;;;11.20;99.90;;;;;;5037269;28;20205;-75
2022/11/02 09:03:35;;;;;;;1.05;1.02;;;11.20;99.90;;;;;;5036508;28;20210;-76
2022/11/02 09:06:01;;;;;;;0.50;0.50;;;11.10;99.90;;;;;;5044842;28;20196;-76
2022/11/02 09:08:27;;;;;;;1.33;1.15;;;11.20;99.90;;;;;;5075067;28;20188;-76
2022/11/02 09:10:58;;;;;;;0.60;0.60;;;11.20;99.90;;;;;;5059052;28;20205;-75
2022/11/02 09:13:24;;;;;;;0.57;0.57;;;11.20;99.90;;;;;;5037046;28;20567;-76
2022/11/02 09:15:54;;;;;;;2.25;0.82;;;11.30;99.90;;;;;;5055009;28;20395;-76
2022/11/02 09:18:20;;;;;;;0.50;0.50;;;11.30;99.90;;;;;;5036882;28;20676;-76
2022/11/02 09:20:47;;;;;;;1.35;1.25;;;11.20;99.90;;;;;;5054961;28;20729;-75
2022/11/02 09:23:17;;;;;;;0.73;0.73;;;11.20;99.90;;;;;;5054793;28;20694;-75
2022/11/02 09:25:43;;;;;;;0.90;0.90;;;11.20;99.90;;;;;;5055203;28;20645;-74
2022/11/02 09:28:09;;;;;;;0.70;0.70;;;11.20;99.90;;;;;;5054643;28;20263;-75
2022/11/02 09:30:35;;;;;;;0.68;0.68;;;11.20;99.90;;;;;;5036672;28;20239;-75
2022/11/02 09:33:03;;;;;;;0.50;0.50;;;11.10;99.90;;;;;;5036605;28;20198;-75
2022/11/02 09:35:32;;;;;;;1.60;1.50;;;11.10;99.90;;;;;;5054496;28;20190;-75
2022/11/02 09:37:58;;;;;;;1.77;1.67;;;11.10;99.90;;;;;;5054471;28;20280;-76
2022/11/02 09:40:26;;;;;;;0.50;0.50;;;11.10;99.90;;;;;;5036427;28;20229;-76
2022/11/02 09:43:07;;;;;;;0.60;0.60;;;11.10;99.90;;;;;;5036692;28;20696;-75
2022/11/02 09:45:52;;;;;;;10.20;1.30;;;11.10;99.90;;;;;;5016598;28;20209;-76
2022/11/02 09:48:26;;;;;;;0.50;0.50;;;11.20;99.90;;;;;;5034265;28;20226;-75
2022/11/02 09:51:07;;;;;;;0.77;0.77;;;11.20;99.90;;;;;;5034457;28;20194;-76
2022/11/02 09:53:48;;;;;;;0.50;0.50;;;11.20;99.90;;;;;;5034293;28;20197;-75
2022/11/02 09:56:18;;;;;;;0.50;0.50;;;11.20;99.90;;;;;;5016585;28;20206;-76
2022/11/02 09:58:47;;;;;;;0.50;0.50;;;11.20;99.90;;;;;;5016460;28;20209;-75
2022/11/02 10:01:30;;;;;;;3.17;1.02;;;11.20;99.90;;;;;;5034195;28;20203;-76
2022/11/02 10:04:32;;;;;;;0.70;0.70;;;11.10;99.90;;;;;;5034122;28;20210;-76
2022/11/02 10:07:04;;;;;;;0.63;0.63;;;11.10;99.90;;;;;;5032913;28;20193;-76
2022/11/02 10:10:00;;;;;;;0.50;0.50;;;11.10;99.90;;;;;;5036016;28;20201;-76
2022/11/02 10:12:46;;;;;;;0.60;0.60;;;11.10;99.90;;;;;;5053065;28;20213;-76
2022/11/02 10:15:29;;;;;;;0.50;0.50;;;11.00;99.90;;;;;;5053342;28;20189;-76
2022/11/02 10:17:58;;;;;;;0.60;0.60;;;11.10;99.90;;;;;;5053521;28;20201;-76
2022/11/02 10:20:43;;;;;;;0.70;0.70;;;11.10;99.90;;;;;;5053575;28;20198;-76
2022/11/02 10:23:17;;;;;;;0.60;0.60;;;11.20;99.90;;;;;;5053737;28;20279;-76
2022/11/02 10:25:44;;;;;;;0.93;0.73;;;11.30;99.90;;;;;;5032315;28;20206;-76
2022/11/02 10:28:15;;;;;;;0.75;0.60;;;11.30;99.90;;;;;;5016014;28;20792;-76
2022/11/02 10:30:43;;;;;;;0.50;0.50;;;11.30;99.90;;;;;;5015891;28;20538;-76
2022/11/02 10:33:17;;;;;;;0.85;0.77;;;11.30;99.90;;;;;;5033654;28;20220;-75
2022/11/02 10:36:06;;;;;;;0.60;0.60;;;11.30;99.90;;;;;;5015730;28;20621;-75
2022/11/02 10:39:22;;;;;;;2.58;1.23;;;11.20;99.90;;;;;;5015590;28;20533;-76
2022/11/02 10:41:56;;;;;;;0.60;0.60;;;11.20;99.90;;;;;;4962649;28;20235;-76
2022/11/02 10:45:05;;;;;;;0.50;0.50;;;11.10;99.90;;;;;;5015504;28;20209;-76
2022/11/02 10:47:40;;;;;;;6.50;2.17;;;11.10;99.90;;;;;;5019893;28;20264;-76
2022/11/02 10:50:31;;;;;;;9.95;1.10;;;11.10;99.90;;;;;;5033058;28;20704;-76
2022/11/02 10:53:01;;;;;;;0.75;0.75;;;11.10;99.90;;;;;;5015568;28;20201;-76
2022/11/02 10:55:36;;;;;;;0.50;0.50;;;11.00;99.90;;;;;;5033156;28;20222;-76
2022/11/02 10:58:03;;;;;;;0.80;0.80;;;11.00;99.90;;;;;;5022961;28;20200;-76
2022/11/02 11:00:36;;;;;;;0.80;0.80;;;11.00;99.90;;;;;;5072867;28;20223;-76
2022/11/02 11:03:13;;;;;;;0.60;0.60;;;10.90;99.90;;;;;;5059786;28;20260;-76
2022/11/02 11:05:42;;;;;;;0.60;0.60;;;10.90;99.90;;;;;;5034894;28;20258;-75
2022/11/02 11:08:40;;;;;;;0.65;0.65;;;10.90;99.90;;;;;;5052953;28;20684;-75
2022/11/02 11:11:10;;;;;;;0.50;0.50;;;10.90;99.90;;;;;;5052981;28;20537;-75
2022/11/02 11:13:36;;;;;;;0.50;0.50;;;10.90;99.90;;;;;;5052694;28;20208;-75
2022/11/02 11:16:03;;;;;;;2.20;1.25;;;10.80;99.90;;;;;;5052818;28;20326;-76
2022/11/02 11:18:28;;;;;;;0.73;0.70;;;10.80;99.90;;;;;;5052678;28;20197;-76
2022/11/02 11:20:55;;;;;;;0.65;0.63;;;10.80;99.90;;;;;;5052776;28;20262;-76
2022/11/02 11:23:25;;;;;;;0.60;0.60;;;10.80;99.90;;;;;;5052453;28;20215;-76
2022/11/02 11:26:27;;;;;;;0.85;0.75;;;10.80;99.90;;;;;;5031486;28;20202;-76
2022/11/02 11:28:54;;;;;;;0.68;0.68;;;10.70;99.90;;;;;;5014833;28;20224;-76
2022/11/02 11:31:21;;;;;;;0.98;0.90;;;10.70;99.90;;;;;;5014740;28;20226;-75
2022/11/02 11:33:50;;;;;;;0.80;0.80;;;10.60;99.90;;;;;;5014946;28;20209;-76
2022/11/02 11:36:34;;;;;;;0.73;0.73;;;10.60;99.90;;;;;;5032572;28;20281;-75
2022/11/02 11:39:25;;;;;;;1.15;0.85;;;10.60;99.90;;;;;;5014925;28;20204;-75
2022/11/02 11:41:51;;;;;;;0.80;0.80;;;10.70;99.90;;;;;;5032464;28;20661;-76
2022/11/02 11:44:17;;;;;;;1.60;1.33;;;10.70;99.90;;;;;;5014760;28;20214;-75
2022/11/02 11:46:49;;;;;;;0.60;0.60;;;10.80;99.90;;;;;;5032535;28;20192;-75
2022/11/02 11:49:27;;;;;;;0.50;0.50;;;10.80;99.90;;;;;;5014720;28;20702;-76
2022/11/02 11:51:55;;;;;;;0.50;0.50;;;10.80;99.90;;;;;;5014576;28;20201;-76
2022/11/02 11:54:31;;;;;;;0.65;0.65;;;10.80;99.90;;;;;;5040887;28;20715;-76
2022/11/02 11:57:21;;;;;;;0.80;0.80;;;10.80;99.90;;;;;;5034260;28;20205;-75
2022/11/02 11:59:50;;;;;;;0.50;0.50;;;10.80;99.90;;;;;;5053310;28;20198;-75
2022/11/02 12:02:27;;;;;;;0.77;0.77;;;10.80;99.90;;;;;;5034465;28;20288;-76
2022/11/02 12:05:15;;;;;;;0.60;0.60;;;10.80;99.90;;;;;;5052333;28;20572;-76
2022/11/02 12:08:19;;;;;;;0.60;0.60;;;10.90;99.90;;;;;;5052090;28;20340;-76
2022/11/02 12:11:03;;;;;;;0.50;0.50;;;11.10;99.90;;;;;;5052207;28;20224;-76
2022/11/02 12:13:47;;;;;;;6.22;1.40;;;11.40;99.90;;;;;;5052027;28;20204;-75
2022/11/02 12:16:43;;;;;;;0.50;0.50;;;11.50;99.90;;;;;;5052141;28;20607;-75
2022/11/02 12:19:29;;;;;;;0.50;0.50;;;11.40;99.90;;;;;;5032257;28;20196;-76
2022/11/02 12:22:18;;;;;;;0.65;0.65;;;11.40;99.90;;;;;;5032207;28;20194;-76
2022/11/02 12:25:08;;;;;;;0.68;0.68;;;11.30;99.90;;;;;;5018624;28;20206;-76
2022/11/02 12:27:50;;;;;;;0.80;0.80;;;11.30;99.90;;;;;;5032058;28;20253;-76
2022/11/02 12:30:30;;;;;;;0.70;0.70;;;11.40;99.90;;;;;;5014503;28;20281;-76
2022/11/02 12:33:15;;;;;;;0.60;0.60;;;11.40;99.90;;;;;;5040693;28;20276;-76
2022/11/02 12:35:43;;;;;;;0.50;0.50;;;11.40;99.90;;;;;;5033922;28;20201;-76
2022/11/02 12:38:24;;;;;;;0.85;0.75;;;11.40;99.90;;;;;;5052102;28;20652;-76
2022/11/02 12:40:58;;;;;;;0.90;0.90;;;11.50;99.90;;;;;;5037426;28;20596;-76
2022/11/02 12:43:36;;;;;;;0.70;0.70;;;11.50;99.90;;;;;;5055493;28;20530;-76
2022/11/02 12:46:28;;;;;;;1.33;1.23;;;11.50;99.90;;;;;;5055569;28;20194;-76
2022/11/02 12:48:54;;;;;;;0.50;0.50;;;11.50;99.90;;;;;;5037666;28;20256;-76
2022/11/02 12:51:26;;;;;;;0.60;0.60;;;11.40;99.90;;;;;;5065584;28;20224;-76
2022/11/02 12:54:01;;;;;;;0.88;0.88;;;11.40;99.90;;;;;;5057216;28;20655;-76
2022/11/02 12:56:39;;;;;;;0.73;0.73;;;11.30;99.90;;;;;;5017590;28;20293;-76
2022/11/02 12:59:08;;;;;;;0.60;0.60;;;11.40;99.90;;;;;;5035484;28;20198;-77
2022/11/02 13:01:42;;;;;;;0.73;0.73;;;11.40;99.90;;;;;;5035138;28;20198;-76
2022/11/02 13:04:31;;;;;;;0.88;0.88;;;11.50;99.90;;;;;;5017484;28;20213;-76
2022/11/02 13:07:04;;;;;;;0.70;0.70;;;11.50;99.90;;;;;;5035339;28;20194;-76
2022/11/02 13:09:32;;;;;;;0.77;0.77;;;11.50;99.90;;;;;;5035113;28;20679;-75
2022/11/02 13:12:05;;;;;;;0.50;0.50;;;11.50;99.90;;;;;;5017467;28;20237;-75
2022/11/02 13:14:48;;;;;;;0.52;0.52;;;11.50;99.90;;;;;;5034980;28;20657;-76
2022/11/02 13:17:54;;;;;;;1.02;1.02;;;11.50;99.90;;;;;;5017132;28;20194;-76